createdAt,value
2017-08-22T00:00:42.389Z,17.4
2017-08-22T00:01:44.299Z,17.4
2017-08-22T00:02:46.367Z,17.3
2017-08-22T00:03:48.435Z,17.3
2017-08-22T00:04:50.406Z,17.3
2017-08-22T00:05:52.475Z,17.3
2017-08-22T00:06:54.389Z,17.4
2017-08-22T00:07:56.481Z,17.4
2017-08-22T00:08:58.746Z,17.3
2017-08-22T00:10:00.824Z,17.4
2017-08-22T00:11:03.184Z,17.3
2017-08-22T00:12:05.324Z,17.2
2017-08-22T00:13:07.313Z,17.3
2017-08-22T00:14:09.400Z,17.3
2017-08-22T00:15:11.360Z,17.3
2017-08-22T00:16:13.503Z,17.2
2017-08-22T00:17:15.412Z,17.3
2017-08-22T00:18:17.505Z,17.2
2017-08-22T00:19:19.474Z,17.3
2017-08-22T00:20:21.442Z,17.2
2017-08-22T00:21:23.449Z,17.3
2017-08-22T00:22:25.402Z,17.3
2017-08-22T00:23:27.492Z,17.3
2017-08-22T00:24:29.648Z,17.3
2017-08-22T00:25:31.524Z,17.3
2017-08-22T00:26:33.724Z,17.3
2017-08-22T00:27:35.738Z,17.2
2017-08-22T00:28:37.865Z,17.3
2017-08-22T00:29:39.796Z,17.3
2017-08-22T00:30:41.785Z,17.3
2017-08-22T00:31:44.101Z,17.2
2017-08-22T00:32:46.232Z,17.2
2017-08-22T00:33:48.407Z,17.3
2017-08-22T00:34:50.600Z,17.3
2017-08-22T00:35:52.708Z,17.3
2017-08-22T00:36:54.700Z,17.2
2017-08-22T00:37:56.681Z,17.3
2017-08-22T00:38:58.730Z,17.4
2017-08-22T00:40:00.670Z,17.3
2017-08-22T00:41:02.714Z,17.3
2017-08-22T00:42:04.709Z,17.4
2017-08-22T00:43:06.823Z,17.4
2017-08-22T00:44:08.767Z,17.3
2017-08-22T00:45:10.804Z,17.3
2017-08-22T00:46:12.689Z,17.3
2017-08-22T00:47:14.654Z,17.2
2017-08-22T00:48:16.650Z,17.2
2017-08-22T00:49:18.549Z,17.2
2017-08-22T00:50:20.685Z,17.2
2017-08-22T00:51:22.728Z,17.3
2017-08-22T00:52:24.787Z,17.3
2017-08-22T00:53:26.695Z,17.3
2017-08-22T00:54:28.821Z,17.4
2017-08-22T00:55:30.784Z,17.5
2017-08-22T00:56:32.910Z,17.4
2017-08-22T00:57:34.924Z,17.4
2017-08-22T00:58:36.917Z,17.3
2017-08-22T00:59:38.978Z,17.4
2017-08-22T01:00:41.087Z,17.3
2017-08-22T01:01:43.100Z,17.2
2017-08-22T01:02:45.124Z,17.3
2017-08-22T01:03:47.001Z,17.1
2017-08-22T01:04:48.952Z,17.1
2017-08-22T01:05:51.040Z,16.8
2017-08-22T01:06:53.030Z,16.9
2017-08-22T01:07:54.962Z,16.8
2017-08-22T01:08:56.884Z,16.9
2017-08-22T01:09:58.876Z,16.9
2017-08-22T01:11:00.872Z,17.1
2017-08-22T01:12:02.791Z,16.9
2017-08-22T01:13:04.809Z,16.9
2017-08-22T01:14:06.916Z,16.8
2017-08-22T01:15:08.908Z,16.8
2017-08-22T01:16:10.850Z,16.8
2017-08-22T01:17:12.761Z,16.8
2017-08-22T01:18:14.655Z,16.6
2017-08-22T01:19:16.689Z,16.5
2017-08-22T01:20:18.703Z,16.4
2017-08-22T01:21:20.702Z,16.3
2017-08-22T01:22:22.759Z,16.3
2017-08-22T01:23:24.722Z,16.2
2017-08-22T01:24:26.655Z,16.2
2017-08-22T01:25:28.825Z,16.1
2017-08-22T01:26:30.845Z,16.0
2017-08-22T01:27:32.927Z,15.9
2017-08-22T01:28:34.872Z,15.9
2017-08-22T01:29:36.882Z,15.7
2017-08-22T01:30:38.918Z,15.7
2017-08-22T01:31:41.059Z,15.6
2017-08-22T01:32:43.151Z,15.6
2017-08-22T01:33:45.179Z,15.6
2017-08-22T01:34:47.231Z,15.5
2017-08-22T01:35:49.184Z,15.5
2017-08-22T01:36:51.105Z,15.4
2017-08-22T01:37:53.183Z,15.4
2017-08-22T01:38:55.219Z,15.2
2017-08-22T01:39:57.253Z,15.2
2017-08-22T01:40:59.299Z,15.2
2017-08-22T01:42:01.303Z,15.2
2017-08-22T01:43:03.322Z,15.1
2017-08-22T01:44:05.451Z,15.1
2017-08-22T01:45:07.455Z,15.1
2017-08-22T01:46:09.516Z,15.1
2017-08-22T01:47:11.536Z,14.9
2017-08-22T01:48:13.762Z,14.9
2017-08-22T01:49:15.839Z,14.8
2017-08-22T01:50:17.988Z,14.7
2017-08-22T01:51:20.001Z,14.8
2017-08-22T01:52:21.886Z,14.8
2017-08-22T01:53:23.851Z,14.8
2017-08-22T01:54:25.874Z,14.8
2017-08-22T01:55:27.798Z,14.8
2017-08-22T01:56:29.865Z,14.7
2017-08-22T01:57:31.912Z,14.7
2017-08-22T01:58:33.916Z,14.6
2017-08-22T01:59:35.888Z,14.6
2017-08-22T02:00:37.901Z,14.5
2017-08-22T02:01:39.830Z,14.5
2017-08-22T02:02:41.903Z,14.4
2017-08-22T02:03:43.894Z,14.4
2017-08-22T02:04:45.982Z,14.4
2017-08-22T02:05:48.097Z,14.4
2017-08-22T02:06:50.023Z,14.4
2017-08-22T02:07:52.103Z,14.4
2017-08-22T02:08:54.025Z,14.4
2017-08-22T02:09:56.085Z,14.2
2017-08-22T02:10:58.032Z,14.3
2017-08-22T02:11:59.936Z,14.2
2017-08-22T02:13:01.875Z,14.1
2017-08-22T02:14:03.817Z,14.2
2017-08-22T02:15:05.769Z,14.2
2017-08-22T02:16:07.865Z,14.1
2017-08-22T02:17:09.741Z,14.0
2017-08-22T02:18:11.772Z,14.0
2017-08-22T02:19:13.690Z,14.0
2017-08-22T02:20:15.865Z,14.0
2017-08-22T02:21:17.763Z,14.0
2017-08-22T02:22:19.803Z,14.0
2017-08-22T02:23:21.846Z,14.0
2017-08-22T02:24:23.904Z,14.0
2017-08-22T02:25:25.871Z,13.9
2017-08-22T02:26:27.811Z,13.9
2017-08-22T02:27:29.836Z,13.9
2017-08-22T02:28:31.910Z,13.9
2017-08-22T02:29:34.047Z,13.8
2017-08-22T02:30:35.907Z,13.8
2017-08-22T02:31:37.976Z,13.9
2017-08-22T02:32:39.933Z,13.8
2017-08-22T02:33:41.988Z,13.8
2017-08-22T02:34:44.017Z,13.7
2017-08-22T02:35:46.064Z,13.7
2017-08-22T02:36:48.211Z,13.7
2017-08-22T02:37:50.168Z,13.7
2017-08-22T02:38:52.159Z,13.7
2017-08-22T02:39:54.164Z,13.7
2017-08-22T02:40:56.133Z,13.6
2017-08-22T02:41:58.235Z,13.6
2017-08-22T02:43:00.142Z,13.6
2017-08-22T02:44:02.170Z,13.6
2017-08-22T02:45:04.295Z,13.6
2017-08-22T02:46:06.217Z,13.5
2017-08-22T02:47:08.175Z,13.5
2017-08-22T02:48:10.295Z,13.5
2017-08-22T02:49:12.253Z,13.5
2017-08-22T02:50:14.179Z,13.5
2017-08-22T02:51:16.275Z,13.5
2017-08-22T02:52:18.372Z,13.4
2017-08-22T02:53:20.255Z,13.4
2017-08-22T02:54:22.285Z,13.4
2017-08-22T02:55:24.384Z,13.5
2017-08-22T02:56:26.385Z,13.4
2017-08-22T02:57:28.272Z,13.4
2017-08-22T02:58:30.226Z,13.4
2017-08-22T02:59:32.352Z,13.5
2017-08-22T03:00:34.327Z,13.4
2017-08-22T03:01:36.321Z,13.4
2017-08-22T03:02:38.393Z,13.4
2017-08-22T03:03:40.511Z,13.4
2017-08-22T03:04:42.673Z,13.4
2017-08-22T03:05:44.849Z,13.3
2017-08-22T03:06:46.987Z,13.2
2017-08-22T03:07:49.320Z,13.2
2017-08-22T03:08:51.359Z,13.3
2017-08-22T03:09:53.579Z,13.3
2017-08-22T03:10:55.713Z,13.2
2017-08-22T03:11:57.858Z,13.2
2017-08-22T03:12:59.858Z,13.2
2017-08-22T03:14:01.862Z,13.2
2017-08-22T03:15:03.799Z,13.1
2017-08-22T03:16:05.871Z,13.1
2017-08-22T03:17:07.854Z,13.1
2017-08-22T03:18:09.877Z,13.2
2017-08-22T03:19:11.946Z,13.1
2017-08-22T03:20:14.017Z,13.1
2017-08-22T03:21:15.951Z,13.1
2017-08-22T03:22:17.970Z,13.1
2017-08-22T03:23:19.960Z,13.1
2017-08-22T03:24:22.027Z,13.1
2017-08-22T03:25:24.029Z,13.1
2017-08-22T03:26:26.090Z,13.1
2017-08-22T03:27:28.145Z,13.0
2017-08-22T03:28:30.110Z,12.9
2017-08-22T03:29:32.311Z,13.0
2017-08-22T03:30:34.383Z,12.9
2017-08-22T03:31:36.366Z,13.0
2017-08-22T03:32:38.433Z,12.9
2017-08-22T03:33:40.531Z,12.9
2017-08-22T03:34:42.486Z,12.9
2017-08-22T03:35:44.533Z,12.9
2017-08-22T03:36:46.651Z,12.9
2017-08-22T03:37:48.843Z,12.9
2017-08-22T03:38:50.823Z,13.0
2017-08-22T03:39:52.844Z,12.9
2017-08-22T03:40:54.897Z,13.0
2017-08-22T03:41:56.914Z,13.0
2017-08-22T03:42:58.809Z,12.9
2017-08-22T03:44:00.827Z,12.9
2017-08-22T03:45:02.907Z,12.9
2017-08-22T03:46:04.844Z,12.9
2017-08-22T03:47:07.078Z,12.9
2017-08-22T03:48:09.221Z,12.9
2017-08-22T03:49:11.189Z,12.9
2017-08-22T03:50:13.237Z,13.0
2017-08-22T03:51:15.343Z,12.9
2017-08-22T03:52:17.443Z,12.9
2017-08-22T03:53:19.610Z,12.9
2017-08-22T03:54:21.665Z,12.9
2017-08-22T03:55:23.716Z,12.9
2017-08-22T03:56:25.827Z,12.9
2017-08-22T03:57:27.840Z,12.9
2017-08-22T03:58:30.011Z,12.9
2017-08-22T03:59:32.036Z,12.7
2017-08-22T04:00:34.229Z,12.8
2017-08-22T04:01:36.311Z,12.7
2017-08-22T04:02:38.366Z,12.7
2017-08-22T04:03:40.488Z,12.7
2017-08-22T04:04:42.628Z,12.8
2017-08-22T04:05:44.672Z,12.9
2017-08-22T04:06:46.649Z,12.9
2017-08-22T04:07:48.609Z,12.9
2017-08-22T04:08:50.715Z,12.9
2017-08-22T04:09:52.703Z,12.9
2017-08-22T04:10:54.775Z,12.8
2017-08-22T04:11:56.848Z,12.9
2017-08-22T04:12:58.846Z,12.8
2017-08-22T04:14:00.987Z,12.8
2017-08-22T04:15:03.109Z,12.8
2017-08-22T04:16:05.254Z,12.8
2017-08-22T04:17:07.219Z,12.8
2017-08-22T04:18:09.523Z,12.7
2017-08-22T04:19:11.914Z,12.8
2017-08-22T04:20:14.134Z,12.8
2017-08-22T04:21:16.386Z,12.7
2017-08-22T04:22:18.550Z,12.8
2017-08-22T04:23:20.689Z,12.9
2017-08-22T04:24:22.800Z,12.8
2017-08-22T04:25:25.001Z,12.8
2017-08-22T04:26:27.179Z,12.8
2017-08-22T04:27:29.471Z,12.9
2017-08-22T04:28:31.523Z,12.8
2017-08-22T04:29:33.817Z,12.8
2017-08-22T04:30:36.050Z,12.7
2017-08-22T04:31:38.189Z,12.7
2017-08-22T04:32:40.330Z,12.7
2017-08-22T04:33:42.497Z,12.7
2017-08-22T04:34:44.666Z,12.7
2017-08-22T04:35:46.792Z,12.7
2017-08-22T04:36:48.865Z,12.6
2017-08-22T04:37:51.025Z,12.6
2017-08-22T04:38:53.139Z,12.6
2017-08-22T04:39:55.349Z,12.7
2017-08-22T04:40:57.464Z,12.7
2017-08-22T04:41:59.504Z,12.7
2017-08-22T04:43:01.517Z,12.6
2017-08-22T04:44:03.631Z,12.7
2017-08-22T04:45:05.807Z,12.7
2017-08-22T04:46:07.918Z,12.6
2017-08-22T04:47:10.017Z,12.6
2017-08-22T04:48:12.008Z,12.6
2017-08-22T04:49:14.180Z,12.6
2017-08-22T04:50:16.381Z,12.6
2017-08-22T04:51:18.350Z,12.6
2017-08-22T04:52:20.406Z,12.6
2017-08-22T04:53:22.555Z,12.6
2017-08-22T04:54:24.564Z,12.6
2017-08-22T04:55:26.753Z,12.6
2017-08-22T04:56:28.677Z,12.6
2017-08-22T04:57:30.653Z,12.7
2017-08-22T04:58:32.759Z,12.6
2017-08-22T04:59:34.947Z,12.6
2017-08-22T05:00:36.855Z,12.7
2017-08-22T05:01:38.963Z,12.7
2017-08-22T05:02:41.005Z,12.6
2017-08-22T05:03:42.981Z,12.7
2017-08-22T05:04:44.943Z,12.6
2017-08-22T05:05:46.953Z,12.7
2017-08-22T05:06:48.982Z,12.6
2017-08-22T05:07:51.038Z,12.6
2017-08-22T05:08:53.100Z,12.6
2017-08-22T05:09:55.275Z,12.6
2017-08-22T05:10:57.343Z,12.6
2017-08-22T05:11:59.444Z,12.6
2017-08-22T05:13:01.468Z,12.7
2017-08-22T05:14:03.529Z,12.7
2017-08-22T05:15:05.619Z,12.6
2017-08-22T05:16:07.456Z,12.6
2017-08-22T05:17:09.561Z,12.6
2017-08-22T05:18:11.688Z,12.7
2017-08-22T05:19:13.770Z,12.6
2017-08-22T05:20:15.786Z,12.6
2017-08-22T05:21:17.886Z,12.6
2017-08-22T05:22:19.941Z,12.6
2017-08-22T05:23:22.107Z,12.7
2017-08-22T05:24:24.193Z,12.7
2017-08-22T05:25:26.291Z,12.7
2017-08-22T05:26:28.361Z,12.8
2017-08-22T05:27:30.523Z,12.7
2017-08-22T05:28:32.717Z,12.8
2017-08-22T05:29:34.688Z,12.8
2017-08-22T05:30:36.731Z,12.8
2017-08-22T05:31:38.750Z,12.8
2017-08-22T05:32:40.753Z,12.8
2017-08-22T05:33:42.706Z,12.8
2017-08-22T05:34:44.810Z,12.9
2017-08-22T05:35:46.942Z,12.9
2017-08-22T05:36:49.190Z,12.9
2017-08-22T05:37:51.278Z,13.0
2017-08-22T05:38:53.456Z,12.8
2017-08-22T05:39:55.411Z,12.9
2017-08-22T05:40:57.510Z,12.9
2017-08-22T05:41:59.610Z,13.0
2017-08-22T05:43:01.709Z,13.0
2017-08-22T05:44:03.750Z,13.0
2017-08-22T05:45:05.798Z,13.0
2017-08-22T05:46:07.801Z,13.0
2017-08-22T05:47:09.823Z,12.9
2017-08-22T05:48:11.824Z,13.0
2017-08-22T05:49:13.677Z,13.0
2017-08-22T05:50:15.816Z,13.0
2017-08-22T05:51:17.887Z,13.0
2017-08-22T05:52:20.009Z,13.1
2017-08-22T05:53:22.136Z,13.0
2017-08-22T05:54:24.372Z,13.0
2017-08-22T05:55:26.419Z,13.0
2017-08-22T05:56:28.570Z,13.1
2017-08-22T05:57:30.758Z,13.0
2017-08-22T05:58:32.985Z,13.1
2017-08-22T05:59:35.191Z,13.1
2017-08-22T06:00:37.228Z,13.1
2017-08-22T06:01:40.009Z,13.0
2017-08-22T06:02:42.191Z,13.1
2017-08-22T06:03:44.230Z,13.0
2017-08-22T06:04:46.410Z,13.2
2017-08-22T06:05:48.429Z,13.2
2017-08-22T06:06:50.439Z,13.2
2017-08-22T06:07:52.593Z,13.1
2017-08-22T06:08:54.571Z,13.2
2017-08-22T06:09:56.551Z,13.2
2017-08-22T06:10:58.670Z,13.2
2017-08-22T06:12:00.773Z,13.3
2017-08-22T06:13:02.999Z,13.3
2017-08-22T06:14:05.009Z,13.3
2017-08-22T06:15:07.249Z,13.3
2017-08-22T06:16:09.549Z,13.3
2017-08-22T06:17:11.788Z,13.4
2017-08-22T06:18:13.947Z,13.4
2017-08-22T06:19:16.034Z,13.4
2017-08-22T06:20:18.126Z,13.5
2017-08-22T06:21:20.218Z,13.4
2017-08-22T06:22:22.453Z,13.5
2017-08-22T06:23:24.789Z,13.5
2017-08-22T06:24:27.050Z,13.4
2017-08-22T06:25:29.262Z,13.5
2017-08-22T06:26:31.426Z,13.5
2017-08-22T06:27:33.622Z,13.7
2017-08-22T06:28:35.727Z,13.9
2017-08-22T06:29:37.928Z,14.3
2017-08-22T06:30:39.985Z,14.6
2017-08-22T06:31:42.070Z,15.0
2017-08-22T06:32:44.199Z,15.3
2017-08-22T06:33:46.351Z,15.7
2017-08-22T06:34:48.258Z,16.0
2017-08-22T06:35:50.351Z,15.9
2017-08-22T06:36:52.392Z,15.8
2017-08-22T06:37:54.481Z,16.0
2017-08-22T06:38:56.518Z,16.1
2017-08-22T06:39:58.499Z,16.1
2017-08-22T06:41:00.596Z,16.2
2017-08-22T06:42:02.796Z,16.4
2017-08-22T06:43:04.880Z,16.5
2017-08-22T06:44:06.955Z,16.5
2017-08-22T06:45:08.935Z,16.7
2017-08-22T06:46:11.075Z,16.7
2017-08-22T06:47:13.049Z,16.8
2017-08-22T06:48:15.153Z,17.0
2017-08-22T06:49:17.363Z,17.0
2017-08-22T06:50:19.599Z,17.1
2017-08-22T06:51:21.816Z,17.4
2017-08-22T06:52:24.058Z,17.3
2017-08-22T06:53:26.313Z,17.5
2017-08-22T06:54:28.371Z,17.7
2017-08-22T06:55:30.553Z,17.8
2017-08-22T06:56:32.796Z,18.0
2017-08-22T06:57:34.902Z,18.0
2017-08-22T06:58:36.995Z,18.0
2017-08-22T06:59:39.181Z,18.0
2017-08-22T07:01:49.626Z,18.1
2017-08-22T07:02:51.790Z,18.2
2017-08-22T07:03:53.864Z,18.2
2017-08-22T07:04:55.863Z,18.3
2017-08-22T07:05:57.831Z,18.4
2017-08-22T07:06:59.899Z,18.5
2017-08-22T07:08:02.096Z,18.6
2017-08-22T07:09:04.111Z,18.7
2017-08-22T07:10:06.286Z,18.9
2017-08-22T07:11:08.397Z,18.9
2017-08-22T07:12:10.715Z,18.8
2017-08-22T07:13:12.809Z,18.7
2017-08-22T07:14:14.916Z,18.8
2017-08-22T07:15:16.978Z,18.8
2017-08-22T07:16:19.145Z,18.9
2017-08-22T07:17:21.335Z,18.9
2017-08-22T07:18:23.396Z,19.2
2017-08-22T07:19:25.749Z,19.2
2017-08-22T07:20:27.810Z,19.4
2017-08-22T07:21:29.886Z,19.5
2017-08-22T07:22:31.920Z,19.5
2017-08-22T07:23:34.074Z,19.5
2017-08-22T07:24:36.190Z,19.5
2017-08-22T07:25:38.340Z,19.7
2017-08-22T07:26:40.438Z,19.8
2017-08-22T07:27:42.514Z,19.5
2017-08-22T07:28:44.691Z,19.5
2017-08-22T07:29:46.785Z,19.5
2017-08-22T07:30:48.784Z,19.6
2017-08-22T07:31:50.996Z,20.0
2017-08-22T07:32:53.094Z,20.0
2017-08-22T07:33:55.167Z,20.0
2017-08-22T07:34:57.313Z,20.1
2017-08-22T07:35:59.395Z,20.2
2017-08-22T07:37:01.630Z,20.0
2017-08-22T07:38:03.869Z,20.2
2017-08-22T07:39:06.197Z,20.3
2017-08-22T07:40:08.464Z,20.4
2017-08-22T07:41:10.617Z,20.4
2017-08-22T07:42:12.740Z,20.6
2017-08-22T07:43:14.968Z,20.6
2017-08-22T07:44:17.133Z,20.6
2017-08-22T07:45:19.386Z,20.6
2017-08-22T07:46:21.703Z,20.5
2017-08-22T07:47:23.904Z,20.6
2017-08-22T07:48:26.113Z,20.6
2017-08-22T07:49:28.355Z,20.7
2017-08-22T07:50:30.586Z,20.8
2017-08-22T07:51:32.835Z,20.8
2017-08-22T07:52:35.121Z,20.8
2017-08-22T07:53:37.441Z,20.9
2017-08-22T07:54:39.515Z,21.1
2017-08-22T07:55:41.745Z,21.2
2017-08-22T07:56:43.990Z,21.3
2017-08-22T07:57:46.188Z,21.2
2017-08-22T07:58:48.307Z,21.4
2017-08-22T07:59:50.407Z,21.3
2017-08-22T08:01:49.330Z,21.5
2017-08-22T08:02:51.497Z,21.4
2017-08-22T08:03:53.492Z,21.6
2017-08-22T08:04:55.656Z,21.5
2017-08-22T08:05:57.899Z,21.7
2017-08-22T08:06:59.990Z,21.8
2017-08-22T08:08:02.185Z,22.1
2017-08-22T08:09:04.297Z,22.1
2017-08-22T08:10:06.221Z,22.2
2017-08-22T08:11:08.233Z,22.2
2017-08-22T08:12:10.299Z,22.2
2017-08-22T08:13:12.332Z,22.4
2017-08-22T08:14:14.376Z,22.5
2017-08-22T08:15:16.422Z,22.5
2017-08-22T08:16:18.406Z,22.6
2017-08-22T08:17:20.434Z,22.7
2017-08-22T08:18:22.529Z,22.6
2017-08-22T08:19:24.576Z,22.8
2017-08-22T08:20:26.497Z,22.3
2017-08-22T08:21:28.645Z,22.4
2017-08-22T08:22:30.673Z,22.8
2017-08-22T08:23:32.724Z,22.7
2017-08-22T08:24:34.726Z,22.6
2017-08-22T08:25:36.682Z,22.5
2017-08-22T08:26:38.741Z,22.7
2017-08-22T08:27:40.875Z,23.0
2017-08-22T08:28:43.141Z,22.8
2017-08-22T08:29:45.532Z,23.0
2017-08-22T08:30:47.962Z,23.1
2017-08-22T08:31:50.011Z,23.0
2017-08-22T08:32:51.998Z,22.8
2017-08-22T08:33:53.840Z,22.7
2017-08-22T08:34:55.769Z,23.0
2017-08-22T08:35:57.864Z,22.9
2017-08-22T08:36:59.878Z,22.9
2017-08-22T08:38:02.000Z,22.8
2017-08-22T08:39:04.218Z,22.9
2017-08-22T08:40:06.152Z,22.8
2017-08-22T08:41:08.125Z,22.9
2017-08-22T08:42:10.037Z,23.2
2017-08-22T08:43:12.035Z,23.1
2017-08-22T08:44:14.028Z,23.3
2017-08-22T08:45:16.211Z,23.2
2017-08-22T08:46:18.265Z,22.9
2017-08-22T08:47:20.210Z,22.9
2017-08-22T08:48:22.191Z,23.1
2017-08-22T08:49:24.159Z,23.3
2017-08-22T08:50:26.243Z,23.4
2017-08-22T08:51:28.178Z,23.2
2017-08-22T08:52:30.197Z,23.7
2017-08-22T08:53:32.230Z,23.7
2017-08-22T08:54:34.191Z,23.6
2017-08-22T08:55:36.146Z,23.2
2017-08-22T08:56:38.239Z,23.2
2017-08-22T08:57:40.269Z,23.3
2017-08-22T08:58:42.311Z,23.4
2017-08-22T08:59:44.282Z,23.5
2017-08-22T09:01:49.802Z,23.8
2017-08-22T09:02:51.772Z,24.0
2017-08-22T09:03:53.673Z,24.1
2017-08-22T09:04:55.761Z,24.2
2017-08-22T09:05:57.684Z,24.0
2017-08-22T09:06:59.846Z,23.7
2017-08-22T09:08:01.848Z,23.8
2017-08-22T09:09:03.968Z,23.5
2017-08-22T09:10:05.922Z,23.6
2017-08-22T09:11:07.964Z,23.8
2017-08-22T09:12:09.900Z,24.2
2017-08-22T09:13:11.853Z,24.2
2017-08-22T09:14:13.802Z,24.3
2017-08-22T09:15:15.862Z,24.3
2017-08-22T09:16:17.908Z,24.3
2017-08-22T09:17:20.026Z,24.2
2017-08-22T09:18:22.106Z,24.4
2017-08-22T09:19:24.054Z,24.6
2017-08-22T09:20:26.039Z,24.4
2017-08-22T09:21:28.083Z,24.1
2017-08-22T09:22:30.064Z,24.3
2017-08-22T09:23:32.223Z,24.4
2017-08-22T09:24:34.222Z,24.5
2017-08-22T09:25:36.178Z,24.6
2017-08-22T09:26:38.174Z,24.6
2017-08-22T09:27:40.327Z,24.7
2017-08-22T09:28:42.394Z,25.0
2017-08-22T09:29:44.442Z,24.9
2017-08-22T09:30:46.644Z,25.2
2017-08-22T09:31:49.675Z,24.4
2017-08-22T09:32:52.016Z,23.6
2017-08-22T09:33:54.110Z,24.0
2017-08-22T09:34:56.278Z,23.6
2017-08-22T09:35:58.313Z,23.9
2017-08-22T09:37:00.367Z,24.1
2017-08-22T09:38:02.442Z,24.4
2017-08-22T09:39:04.480Z,24.4
2017-08-22T09:40:06.534Z,24.7
2017-08-22T09:41:09.030Z,24.5
2017-08-22T09:42:11.264Z,24.3
2017-08-22T09:43:13.418Z,24.2
2017-08-22T09:44:15.310Z,23.9
2017-08-22T09:45:17.417Z,23.9
2017-08-22T09:46:19.554Z,23.8
2017-08-22T09:47:21.817Z,24.2
2017-08-22T09:48:23.867Z,24.3
2017-08-22T09:49:25.958Z,24.4
2017-08-22T09:50:28.085Z,24.3
2017-08-22T09:51:30.219Z,24.4
2017-08-22T09:52:32.354Z,24.6
2017-08-22T09:53:34.566Z,24.6
2017-08-22T09:54:36.593Z,24.8
2017-08-22T09:55:38.809Z,24.7
2017-08-22T09:56:41.109Z,24.3
2017-08-22T09:57:43.231Z,24.4
2017-08-22T09:58:45.357Z,24.5
2017-08-22T09:59:47.498Z,24.7
2017-08-22T10:01:49.769Z,24.5
2017-08-22T10:02:51.837Z,24.8
2017-08-22T10:03:54.013Z,24.8
2017-08-22T10:04:56.369Z,23.9
2017-08-22T10:05:59.010Z,23.7
2017-08-22T10:07:01.231Z,23.9
2017-08-22T10:08:03.484Z,24.4
2017-08-22T10:09:05.718Z,24.4
2017-08-22T10:10:07.857Z,24.6
2017-08-22T10:11:10.009Z,24.8
2017-08-22T10:12:12.098Z,24.7
2017-08-22T10:13:14.415Z,24.4
2017-08-22T10:14:16.609Z,23.9
2017-08-22T10:15:18.934Z,23.9
2017-08-22T10:16:20.987Z,24.3
2017-08-22T10:17:23.076Z,24.6
2017-08-22T10:18:25.162Z,24.6
2017-08-22T10:19:27.796Z,24.8
2017-08-22T10:20:29.661Z,24.8
2017-08-22T10:21:32.240Z,24.7
2017-08-22T10:22:35.090Z,24.3
2017-08-22T10:23:37.631Z,24.4
2017-08-22T10:24:39.853Z,24.3
2017-08-22T10:25:41.944Z,24.3
2017-08-22T10:26:44.024Z,24.4
2017-08-22T10:27:46.568Z,24.4
2017-08-22T10:28:48.675Z,24.6
2017-08-22T10:29:50.977Z,24.5
2017-08-22T10:30:53.168Z,24.4
2017-08-22T10:31:55.265Z,24.4
2017-08-22T10:32:57.328Z,24.7
2017-08-22T10:33:59.471Z,24.7
2017-08-22T10:35:01.677Z,24.6
2017-08-22T10:36:03.732Z,24.4
2017-08-22T10:37:05.891Z,24.4
2017-08-22T10:38:07.932Z,24.7
2017-08-22T10:39:10.015Z,24.6
2017-08-22T10:40:12.138Z,24.7
2017-08-22T10:41:14.128Z,24.8
2017-08-22T10:42:16.149Z,25.2
2017-08-22T10:43:18.735Z,25.4
2017-08-22T10:44:21.282Z,25.0
2017-08-22T10:45:23.736Z,24.7
2017-08-22T10:46:26.005Z,24.6
2017-08-22T10:47:27.996Z,24.8
2017-08-22T10:48:30.212Z,25.1
2017-08-22T10:49:32.354Z,25.0
2017-08-22T10:50:34.874Z,25.0
2017-08-22T10:51:36.965Z,25.0
2017-08-22T10:52:38.939Z,24.4
2017-08-22T10:53:41.028Z,24.7
2017-08-22T10:54:43.280Z,24.9
2017-08-22T10:55:45.304Z,25.1
2017-08-22T10:56:47.509Z,25.4
2017-08-22T10:57:49.529Z,25.2
2017-08-22T10:58:51.559Z,25.7
2017-08-22T10:59:53.733Z,25.8
2017-08-22T11:00:55.772Z,25.8
2017-08-22T11:01:57.961Z,25.5
2017-08-22T11:02:59.961Z,25.6
2017-08-22T11:04:02.155Z,25.3
2017-08-22T11:05:04.262Z,25.3
2017-08-22T11:06:06.419Z,25.5
2017-08-22T11:07:08.559Z,25.7
2017-08-22T11:08:10.681Z,25.7
2017-08-22T11:09:12.773Z,26.0
2017-08-22T11:10:14.979Z,26.1
2017-08-22T11:11:17.416Z,25.7
2017-08-22T11:12:19.616Z,25.1
2017-08-22T11:13:21.650Z,25.4
2017-08-22T11:14:23.728Z,25.5
2017-08-22T11:15:25.876Z,25.7
2017-08-22T11:16:28.127Z,25.7
2017-08-22T11:17:30.182Z,25.8
2017-08-22T11:18:32.631Z,25.3
2017-08-22T11:19:35.179Z,24.7
2017-08-22T11:20:37.202Z,24.7
2017-08-22T11:21:39.237Z,25.0
2017-08-22T11:22:41.182Z,25.2
2017-08-22T11:23:43.259Z,25.4
2017-08-22T11:24:45.303Z,25.8
2017-08-22T11:25:47.565Z,25.8
2017-08-22T11:26:49.641Z,26.0
2017-08-22T11:27:51.722Z,26.1
2017-08-22T11:28:53.729Z,26.1
2017-08-22T11:29:56.221Z,26.4
2017-08-22T11:30:58.539Z,25.8
2017-08-22T11:32:01.004Z,25.6
2017-08-22T11:33:03.181Z,25.4
2017-08-22T11:34:05.337Z,25.1
2017-08-22T11:35:09.274Z,25.0
2017-08-22T11:36:11.578Z,25.6
2017-08-22T11:37:17.772Z,25.8
2017-08-22T11:38:19.715Z,25.7
2017-08-22T11:39:21.871Z,25.8
2017-08-22T11:40:23.902Z,25.8
2017-08-22T11:41:26.062Z,25.8
2017-08-22T11:42:31.299Z,25.9
2017-08-22T11:43:33.444Z,26.0
2017-08-22T11:44:35.519Z,26.3
2017-08-22T11:45:43.362Z,26.2
2017-08-22T11:46:45.229Z,26.2
2017-08-22T11:47:47.289Z,26.1
2017-08-22T11:48:49.257Z,26.0
2017-08-22T11:49:51.397Z,26.0
2017-08-22T11:50:53.348Z,25.9
2017-08-22T11:51:55.430Z,25.9
2017-08-22T11:52:57.475Z,26.0
2017-08-22T11:53:59.669Z,26.1
2017-08-22T11:55:01.803Z,26.2
2017-08-22T11:56:04.057Z,26.5
2017-08-22T11:57:06.224Z,26.6
2017-08-22T11:58:08.248Z,26.7
2017-08-22T11:59:10.390Z,26.4
2017-08-22T12:00:12.206Z,26.4
2017-08-22T12:01:14.018Z,26.0
2017-08-22T12:02:15.773Z,25.5
2017-08-22T12:03:17.572Z,25.4
2017-08-22T12:04:19.444Z,24.8
2017-08-22T12:05:21.258Z,24.6
2017-08-22T12:06:23.076Z,24.8
2017-08-22T12:07:24.946Z,25.0
2017-08-22T12:08:26.742Z,25.2
2017-08-22T12:09:28.619Z,25.2
2017-08-22T12:10:30.401Z,25.3
2017-08-22T12:11:32.314Z,25.6
2017-08-22T12:12:34.222Z,26.0
2017-08-22T12:13:35.991Z,26.2
2017-08-22T12:14:37.751Z,26.3
2017-08-22T12:15:39.495Z,26.5
2017-08-22T12:16:41.451Z,26.0
2017-08-22T12:17:43.297Z,26.0
2017-08-22T12:18:45.097Z,26.1
2017-08-22T12:19:49.115Z,26.0
2017-08-22T12:20:50.706Z,26.4
2017-08-22T12:21:52.787Z,26.5
2017-08-22T12:22:54.524Z,26.6
2017-08-22T12:23:56.474Z,26.6
2017-08-22T12:24:58.348Z,26.7
2017-08-22T12:26:00.122Z,26.8
2017-08-22T12:27:02.076Z,26.9
2017-08-22T12:28:03.916Z,26.9
2017-08-22T12:29:05.777Z,26.8
2017-08-22T12:30:07.660Z,27.0
2017-08-22T12:31:09.532Z,26.6
2017-08-22T12:32:11.333Z,26.5
2017-08-22T12:33:13.070Z,26.3
2017-08-22T12:34:21.058Z,26.4
2017-08-22T12:35:22.388Z,26.2
2017-08-22T12:36:24.261Z,26.3
2017-08-22T12:37:26.017Z,26.5
2017-08-22T12:38:29.864Z,26.9
2017-08-22T12:39:31.633Z,27.0
2017-08-22T12:40:33.532Z,27.3
2017-08-22T12:41:35.431Z,27.3
2017-08-22T12:42:37.344Z,27.2
2017-08-22T12:43:39.062Z,26.7
2017-08-22T12:44:41.010Z,26.7
2017-08-22T12:45:43.012Z,26.8
2017-08-22T12:46:48.255Z,26.8
2017-08-22T12:47:49.838Z,27.1
2017-08-22T12:48:51.581Z,27.0
2017-08-22T12:49:53.372Z,26.9
2017-08-22T12:50:55.188Z,26.8
2017-08-22T12:51:56.868Z,26.4
2017-08-22T12:52:58.651Z,26.3
2017-08-22T12:54:00.470Z,26.4
2017-08-22T12:55:02.333Z,26.3
2017-08-22T12:56:04.018Z,26.3
2017-08-22T12:57:05.827Z,26.2
2017-08-22T12:58:07.588Z,26.3
2017-08-22T12:59:09.306Z,26.0
2017-08-22T13:00:11.154Z,25.7
2017-08-22T13:01:12.864Z,25.8
2017-08-22T13:02:14.573Z,26.1
2017-08-22T13:03:16.328Z,26.0
2017-08-22T13:04:18.053Z,25.6
2017-08-22T13:05:19.858Z,25.5
2017-08-22T13:06:21.623Z,25.7
2017-08-22T13:07:23.286Z,25.4
2017-08-22T13:08:25.133Z,25.7
2017-08-22T13:09:26.874Z,26.0
2017-08-22T13:10:28.601Z,26.4
2017-08-22T13:11:30.504Z,26.6
2017-08-22T13:12:32.268Z,26.7
2017-08-22T13:13:34.032Z,26.8
2017-08-22T13:14:35.848Z,26.6
2017-08-22T13:15:37.684Z,26.4
2017-08-22T13:16:39.276Z,26.0
2017-08-22T13:17:40.979Z,26.2
2017-08-22T13:18:42.726Z,26.1
2017-08-22T13:19:44.460Z,26.3
2017-08-22T13:20:46.152Z,26.1
2017-08-22T13:21:48.056Z,26.4
2017-08-22T13:22:49.844Z,26.5
2017-08-22T13:23:51.600Z,26.1
2017-08-22T13:24:53.415Z,25.9
2017-08-22T13:25:55.264Z,26.0
2017-08-22T13:26:56.974Z,25.8
2017-08-22T13:27:58.750Z,25.8
2017-08-22T13:29:00.563Z,25.8
2017-08-22T13:30:02.305Z,25.8
2017-08-22T13:31:04.068Z,26.1
2017-08-22T13:32:05.863Z,25.9
2017-08-22T13:33:07.616Z,26.0
2017-08-22T13:34:09.460Z,26.1
2017-08-22T13:35:11.218Z,26.2
2017-08-22T13:36:13.010Z,26.5
2017-08-22T13:37:14.891Z,26.4
2017-08-22T13:38:16.559Z,26.4
2017-08-22T13:39:18.355Z,26.4
2017-08-22T13:40:20.093Z,26.4
2017-08-22T13:41:21.826Z,25.9
2017-08-22T13:42:23.540Z,26.0
2017-08-22T13:43:25.345Z,26.3
2017-08-22T13:44:27.020Z,26.5
2017-08-22T13:45:28.678Z,26.4
2017-08-22T13:46:30.426Z,26.8
2017-08-22T13:47:32.106Z,26.6
2017-08-22T13:48:33.881Z,27.0
2017-08-22T13:49:35.625Z,26.8
2017-08-22T13:50:37.386Z,26.5